Time;durP1;ratioP1;P1;durP2;ratioP2;P2;SDS_P1;SDS_P2;PMS_P1;PMS_P2;Temp;Humidity;BMP_temperature;BMP_pressure;BME280_temperature;BME280_humidity;BME280_pressure;Samples;Min_cycle;Max_cycle;Signal;HPM_P1;HPM_P2
2023/04/12 00:01:41;;;;;;;0.85;0.43;;;;;;;12.32;55.85;100149.09;6305481;23;20029;-85
2023/04/12 00:04:13;;;;;;;1.25;1.15;;;;;;;12.36;55.63;100148.88;6323108;23;20029;-85
2023/04/12 00:06:47;;;;;;;0.20;0.20;;;;;;;12.36;55.80;100138.38;6321056;23;20021;-85
2023/04/12 00:09:17;;;;;;;0.30;0.30;;;;;;;12.30;56.33;100135.13;6321385;23;20493;-85
2023/04/12 00:11:48;;;;;;;0.77;0.77;;;;;;;12.03;59.43;100132.75;6348641;23;20021;-85
2023/04/12 00:14:18;;;;;;;0.28;0.28;;;;;;;12.21;56.58;100125.88;6326801;23;20025;-86
2023/04/12 00:16:49;;;;;;;0.45;0.45;;;;;;;12.24;56.53;100113.44;6321984;23;20010;-86
2023/04/12 00:19:20;;;;;;;0.30;0.30;;;;;;;12.28;56.85;100111.53;6357355;23;20016;-86
2023/04/12 00:21:50;;;;;;;0.30;0.30;;;;;;;12.24;56.95;100102.06;6320000;23;20014;-85
2023/04/12 00:24:21;;;;;;;0.95;0.88;;;;;;;12.28;56.22;100093.97;6329273;23;20005;-86
2023/04/12 00:26:52;;;;;;;0.38;0.38;;;;;;;12.22;56.68;100093.41;6326447;23;20025;-85
2023/04/12 00:29:22;;;;;;;3.50;0.85;;;;;;;12.19;57.92;100086.47;6370397;23;20004;-86
2023/04/12 00:31:53;;;;;;;0.20;0.20;;;;;;;12.25;57.29;100073.09;6337579;23;20060;-86
2023/04/12 00:34:24;;;;;;;0.20;0.20;;;;;;;12.27;56.42;100065.13;6338159;23;20064;-86
2023/04/12 00:36:55;;;;;;;0.20;0.20;;;;;;;12.26;56.77;100074.78;6335657;23;20005;-86
2023/04/12 00:39:26;;;;;;;0.30;0.30;;;;;;;12.27;56.82;100060.69;6339193;23;20009;-84
2023/04/12 00:42:02;;;;;;;0.30;0.30;;;;;;;12.23;57.05;100048.63;6336886;23;20017;-85
2023/04/12 00:44:32;;;;;;;0.60;0.60;;;;;;;12.20;57.28;100048.75;6327583;23;20485;-86
2023/04/12 00:47:06;;;;;;;0.30;0.30;;;;;;;12.19;57.64;100041.78;6327851;23;20041;-86
2023/04/12 00:49:37;;;;;;;2.10;1.00;;;;;;;12.24;57.36;100045.06;6347647;23;20005;-86
2023/04/12 00:52:08;;;;;;;0.22;0.22;;;;;;;12.13;58.06;100036.78;6325094;23;20925;-87
2023/04/12 00:54:40;;;;;;;0.98;0.55;;;;;;;12.17;58.51;100027.84;6322131;23;20019;-85
2023/04/12 00:57:11;;;;;;;0.65;0.30;;;;;;;12.18;58.60;100026.06;6328625;23;20014;-86
2023/04/12 00:59:42;;;;;;;2.20;0.90;;;;;;;12.04;59.96;100021.41;6341575;23;19993;-86
2023/04/12 01:02:12;;;;;;;12.27;2.05;;;;;;;12.09;59.10;100008.94;6327459;23;20105;-85
2023/04/12 01:04:43;;;;;;;0.30;0.30;;;;;;;12.11;58.88;100007.06;6321039;23;20006;-87
2023/04/12 01:07:28;;;;;;;0.30;0.30;;;;;;;12.07;58.71;100001.09;6333878;23;20006;-87
2023/04/12 01:10:21;;;;;;;2.22;0.80;;;;;;;12.11;58.11;99991.28;6329225;23;20010;-86
2023/04/12 01:13:04;;;;;;;0.20;0.20;;;;;;;11.98;58.91;99998.03;6334526;23;20069;-87
2023/04/12 01:15:43;;;;;;;0.20;0.20;;;;;;;11.96;59.68;99985.78;6332794;23;20013;-86
2023/04/12 01:18:18;;;;;;;0.20;0.20;;;;;;;11.96;59.65;99982.31;6332273;23;20001;-85
2023/04/12 01:21:14;;;;;;;0.65;0.65;;;;;;;11.74;60.78;99972.72;6328065;23;24199;-86
2023/04/12 01:24:19;;;;;;;0.43;0.43;;;;;;;11.82;59.85;99964.53;6316773;23;20013;-85
2023/04/12 01:26:50;;;;;;;0.20;0.20;;;;;;;11.90;58.78;99957.16;6344679;23;20076;-86
2023/04/12 01:29:24;;;;;;;0.20;0.20;;;;;;;11.81;59.58;99952.28;6343628;23;20001;-86
2023/04/12 01:32:01;;;;;;;0.30;0.30;;;;;;;11.91;59.76;99937.81;6329163;23;20021;-86
2023/04/12 01:34:33;;;;;;;0.30;0.30;;;;;;;11.87;58.88;99936.25;6324998;23;20082;-87
2023/04/12 01:37:05;;;;;;;8.13;0.75;;;;;;;11.88;59.29;99927.44;6329992;23;20029;-86
2023/04/12 01:39:36;;;;;;;0.20;0.20;;;;;;;11.83;59.04;99918.91;6349367;23;20035;-86
2023/04/12 01:42:06;;;;;;;0.80;0.80;;;;;;;11.86;59.32;99917.91;6317512;23;20019;-84
2023/04/12 01:44:37;;;;;;;1.00;1.00;;;;;;;11.83;59.37;99918.91;6314841;23;20600;-85
2023/04/12 01:47:07;;;;;;;0.30;0.30;;;;;;;11.75;59.59;99900.00;6312019;23;20013;-86
2023/04/12 01:50:09;;;;;;;0.73;0.73;;;;;;;11.74;59.44;99893.06;6350040;23;20010;-85
2023/04/12 01:52:52;;;;;;;0.30;0.30;;;;;;;11.68;60.10;99878.41;6315668;23;20069;-85
2023/04/12 01:55:24;;;;;;;0.35;0.35;;;;;;;11.75;58.99;99879.00;6295810;23;20024;-87
2023/04/12 01:57:56;;;;;;;0.30;0.30;;;;;;;11.74;59.08;99872.03;6317712;23;20040;-86
2023/04/12 02:00:28;;;;;;;0.25;0.25;;;;;;;11.56;61.47;99866.69;6292819;23;20006;-85
2023/04/12 02:02:59;;;;;;;0.30;0.30;;;;;;;11.43;62.14;99869.00;6291449;23;20017;-85
2023/04/12 02:05:30;;;;;;;0.30;0.30;;;;;;;11.50;61.26;99854.66;6316817;23;20048;-86
2023/04/12 02:08:02;;;;;;;0.43;0.43;;;;;;;11.47;61.55;99852.19;6341706;23;20010;-85
2023/04/12 02:10:35;;;;;;;0.43;0.43;;;;;;;11.31;62.27;99844.13;6315890;23;20040;-86
2023/04/12 02:13:05;;;;;;;0.40;0.40;;;;;;;11.52;60.34;99846.72;6316228;23;20084;-86
2023/04/12 02:15:37;;;;;;;0.20;0.20;;;;;;;11.31;61.33;99831.00;6316113;23;20016;-86
2023/04/12 02:18:16;;;;;;;0.20;0.20;;;;;;;11.27;62.56;99831.19;6317048;23;20017;-85
2023/04/12 02:20:48;;;;;;;0.20;0.20;;;;;;;11.36;62.73;99829.97;6315200;23;20451;-85
2023/04/12 02:23:19;;;;;;;0.20;0.20;;;;;;;11.09;64.16;99825.00;6316409;23;20085;-86
2023/04/12 02:25:49;;;;;;;1.45;0.60;;;;;;;11.25;61.89;99807.66;6314788;23;20446;-86
2023/04/12 02:28:21;;;;;;;0.30;0.30;;;;;;;11.28;63.10;99796.97;6291493;23;20014;-85
2023/04/12 02:30:52;;;;;;;0.30;0.30;;;;;;;11.18;62.33;99800.97;6315406;23;20446;-86
2023/04/12 02:33:27;;;;;;;0.30;0.30;;;;;;;11.20;62.86;99799.09;6315660;23;20036;-85
2023/04/12 02:35:58;;;;;;;1.60;1.10;;;;;;;11.03;63.70;99798.06;6314705;23;20088;-86
2023/04/12 02:38:29;;;;;;;0.20;0.20;;;;;;;11.07;64.40;99784.81;6316685;23;20001;-85
2023/04/12 02:41:00;;;;;;;0.22;0.22;;;;;;;10.73;65.62;99767.91;6337696;23;20014;-86
2023/04/12 02:43:31;;;;;;;0.30;0.30;;;;;;;10.80;65.10;99751.00;6347194;23;20010;-86
2023/04/12 02:46:02;;;;;;;0.20;0.20;;;;;;;10.78;65.63;99750.22;6320206;23;20048;-87
2023/04/12 02:48:35;;;;;;;0.40;0.40;;;;;;;10.90;64.60;99740.97;6315114;23;20013;-86
2023/04/12 02:51:06;;;;;;;;;;;;;;;10.68;66.55;99745.38;6291338;23;20422;-86
2023/04/12 02:53:36;;;;;;;0.30;0.30;;;;;;;10.81;65.38;99732.56;6291804;23;19905;-86
2023/04/12 02:56:08;;;;;;;0.35;0.35;;;;;;;10.88;64.40;99735.75;6315067;23;20028;-85
2023/04/12 02:58:38;;;;;;;0.30;0.30;;;;;;;10.68;65.75;99721.75;6315824;23;20578;-87
2023/04/12 03:01:11;;;;;;;2.58;0.75;;;;;;;10.80;64.33;99714.25;6315556;23;20037;-84
2023/04/12 03:03:42;;;;;;;0.30;0.30;;;;;;;10.91;64.44;99703.31;6315641;23;20044;-86
2023/04/12 03:06:12;;;;;;;0.30;0.30;;;;;;;10.93;64.18;99690.94;6290181;23;20013;-85
2023/04/12 03:08:43;;;;;;;0.63;0.63;;;;;;;10.84;64.76;99681.72;6316261;23;20017;-85
2023/04/12 03:11:14;;;;;;;0.30;0.30;;;;;;;10.73;65.08;99668.22;6339625;23;20480;-86
2023/04/12 03:13:45;;;;;;;0.30;0.30;;;;;;;10.79;64.30;99662.69;6316732;23;20457;-87
2023/04/12 03:16:24;;;;;;;0.25;0.25;;;;;;;10.63;65.53;99665.16;6314479;23;20064;-86
2023/04/12 03:18:55;;;;;;;0.30;0.30;;;;;;;10.69;66.17;99647.38;6318921;23;20029;-86
2023/04/12 03:21:27;;;;;;;0.57;0.57;;;;;;;10.50;67.52;99647.31;6351763;23;20103;-86
2023/04/12 03:23:58;;;;;;;0.40;0.40;;;;;;;10.57;67.56;99637.44;6331448;23;19989;-85
2023/04/12 03:26:29;;;;;;;0.70;0.70;;;;;;;10.70;66.22;99622.00;6300172;23;20016;-86
2023/04/12 03:29:03;;;;;;;0.30;0.30;;;;;;;10.57;66.65;99621.69;6317202;23;20033;-86
2023/04/12 03:31:34;;;;;;;0.45;0.45;;;;;;;10.20;68.10;99615.44;6317099;23;20044;-85
2023/04/12 03:34:07;;;;;;;1.48;1.20;;;;;;;10.46;67.41;99613.44;6320528;23;20016;-87
2023/04/12 03:36:38;;;;;;;0.30;0.30;;;;;;;10.38;67.65;99595.44;6318320;23;20099;-85
2023/04/12 03:39:11;;;;;;;0.50;0.50;;;;;;;10.36;67.47;99599.84;6318904;23;20019;-85
2023/04/12 03:41:41;;;;;;;0.75;0.75;;;;;;;10.52;66.37;99598.28;6316381;23;20018;-86
2023/04/12 03:44:12;;;;;;;0.30;0.30;;;;;;;10.52;66.11;99579.09;6318907;23;20013;-86
2023/04/12 03:46:42;;;;;;;0.30;0.30;;;;;;;10.47;66.46;99571.44;6320155;23;20009;-86
2023/04/12 03:49:13;;;;;;;1.02;0.55;;;;;;;10.37;67.65;99570.97;6317949;23;20013;-85
2023/04/12 03:51:44;;;;;;;0.20;0.20;;;;;;;10.35;66.25;99554.44;6317923;23;20153;-85
2023/04/12 03:54:15;;;;;;;0.30;0.30;;;;;;;10.41;67.73;99562.97;6294010;23;20020;-86
2023/04/12 03:56:45;;;;;;;0.20;0.20;;;;;;;10.50;66.44;99557.31;6347903;23;20029;-85
2023/04/12 03:59:18;;;;;;;2.60;1.52;;;;;;;10.43;66.83;99550.66;6293870;23;20005;-85
2023/04/12 04:01:49;;;;;;;0.30;0.30;;;;;;;10.52;66.49;99545.00;6317688;23;20024;-86
2023/04/12 04:04:20;;;;;;;0.20;0.20;;;;;;;10.28;67.66;99532.03;6357267;23;20168;-86
2023/04/12 04:06:51;;;;;;;0.65;0.63;;;;;;;10.25;68.11;99529.56;6324755;23;20017;-85
2023/04/12 04:09:21;;;;;;;0.30;0.30;;;;;;;10.34;67.02;99523.03;6299288;23;20001;-85
2023/04/12 04:11:52;;;;;;;0.85;0.85;;;;;;;10.28;67.95;99520.69;6323649;23;20052;-86
2023/04/12 04:14:22;;;;;;;0.25;0.25;;;;;;;10.43;66.31;99513.94;6321411;23;20005;-86
2023/04/12 04:16:54;;;;;;;0.30;0.30;;;;;;;10.46;67.04;99519.03;6347321;23;20405;-86
2023/04/12 04:19:24;;;;;;;0.30;0.30;;;;;;;10.40;67.00;99509.69;6328874;23;20012;-85
2023/04/12 04:21:55;;;;;;;0.30;0.30;;;;;;;10.28;67.97;99508.47;6315677;23;20109;-85
2023/04/12 04:24:26;;;;;;;0.30;0.30;;;;;;;10.15;68.29;99504.66;6339942;23;20013;-85
2023/04/12 04:26:57;;;;;;;0.45;0.45;;;;;;;10.13;69.82;99496.00;6314753;23;20013;-84
2023/04/12 04:29:28;;;;;;;0.35;0.35;;;;;;;9.85;72.14;99492.00;6315258;23;20279;-86
2023/04/12 04:31:59;;;;;;;0.30;0.30;;;;;;;10.05;70.52;99486.72;6314123;23;20018;-84
2023/04/12 04:34:30;;;;;;;0.30;0.30;;;;;;;9.97;71.77;99483.59;6314289;23;20093;-85
2023/04/12 04:37:01;;;;;;;0.30;0.30;;;;;;;10.02;70.30;99473.78;6312817;23;20017;-85
2023/04/12 04:39:31;;;;;;;5.70;1.30;;;;;;;10.11;69.81;99469.88;6314269;23;20017;-84
2023/04/12 04:42:05;;;;;;;0.30;0.30;;;;;;;10.16;70.44;99467.06;6313490;23;20022;-85
2023/04/12 04:44:36;;;;;;;0.55;0.55;;;;;;;10.04;71.94;99464.06;6317237;23;20362;-86
2023/04/12 04:47:10;;;;;;;0.30;0.30;;;;;;;10.35;68.12;99467.91;6318189;23;20021;-82
2023/04/12 04:49:43;;;;;;;12.77;0.98;;;;;;;10.37;68.15;99471.34;6350010;23;20085;-85
2023/04/12 04:52:14;;;;;;;2.83;0.70;;;;;;;10.11;71.51;99474.28;6313225;23;20077;-84
2023/04/12 04:54:44;;;;;;;0.30;0.30;;;;;;;10.22;70.08;99462.38;6316139;23;20010;-86
2023/04/12 04:57:15;;;;;;;0.50;0.50;;;;;;;10.24;69.56;99464.94;6338133;23;20009;-86
2023/04/12 04:59:48;;;;;;;1.02;0.82;;;;;;;9.87;73.22;99453.50;6349961;23;20299;-84
2023/04/12 05:02:20;;;;;;;0.50;0.50;;;;;;;10.08;71.47;99451.69;6310244;23;20148;-86
2023/04/12 05:04:50;;;;;;;1.27;0.88;;;;;;;9.92;72.63;99459.38;6346901;23;20025;-85
2023/04/12 05:07:21;;;;;;;0.60;0.60;;;;;;;10.04;72.23;99445.72;6310884;23;20096;-87
2023/04/12 05:09:51;;;;;;;0.30;0.30;;;;;;;9.96;72.48;99441.75;6323160;23;20056;-85
2023/04/12 05:12:22;;;;;;;0.20;0.20;;;;;;;10.12;71.36;99434.06;6308649;23;20829;-85
2023/04/12 05:14:52;;;;;;;0.40;0.40;;;;;;;10.15;71.12;99436.50;6311725;23;20005;-85
2023/04/12 05:17:22;;;;;;;0.30;0.30;;;;;;;10.15;72.20;99437.38;6308498;23;20021;-85
2023/04/12 05:19:54;;;;;;;0.30;0.30;;;;;;;10.03;72.48;99428.31;6313062;23;20056;-85
2023/04/12 05:22:25;;;;;;;0.65;0.60;;;;;;;9.88;72.99;99426.34;6310654;23;20551;-84
2023/04/12 05:24:56;;;;;;;0.30;0.30;;;;;;;9.83;74.94;99410.88;6336444;23;20009;-85
2023/04/12 05:27:29;;;;;;;0.45;0.45;;;;;;;9.74;75.29;99412.13;6313412;23;20069;-85
2023/04/12 05:29:59;;;;;;;0.45;0.45;;;;;;;9.82;75.06;99405.69;6312191;23;20080;-85
2023/04/12 05:32:30;;;;;;;0.30;0.30;;;;;;;9.92;73.69;99399.13;6309902;23;20040;-85
2023/04/12 05:35:00;;;;;;;0.30;0.30;;;;;;;9.77;75.72;99412.00;6350698;23;20502;-85
2023/04/12 05:37:31;;;;;;;0.70;0.70;;;;;;;9.92;73.35;99409.59;6314245;23;20037;-85
2023/04/12 05:40:01;;;;;;;0.45;0.45;;;;;;;9.95;74.22;99398.13;6291300;23;20021;-86
2023/04/12 05:42:32;;;;;;;0.25;0.25;;;;;;;9.91;74.51;99397.41;6313693;23;20775;-84
2023/04/12 05:45:04;;;;;;;0.30;0.30;;;;;;;10.06;72.55;99396.72;6318839;23;20089;-85
2023/04/12 05:47:35;;;;;;;0.70;0.70;;;;;;;10.16;72.26;99397.16;6310466;23;20041;-84
2023/04/12 05:50:06;;;;;;;0.50;0.50;;;;;;;10.09;72.81;99382.59;6346674;23;20367;-85
2023/04/12 05:52:37;;;;;;;0.57;0.57;;;;;;;10.03;73.38;99389.00;6311561;23;20014;-85
2023/04/12 05:55:08;;;;;;;0.60;0.60;;;;;;;9.88;75.78;99387.06;6314076;23;20010;-85
2023/04/12 05:57:38;;;;;;;0.45;0.45;;;;;;;10.12;72.76;99382.47;6308679;23;20016;-85
2023/04/12 06:00:15;;;;;;;0.30;0.30;;;;;;;9.98;74.64;99369.16;6311109;23;20049;-85
2023/04/12 06:02:47;;;;;;;0.35;0.35;;;;;;;10.13;72.80;99378.06;6308157;23;20021;-85
2023/04/12 06:05:18;;;;;;;0.55;0.55;;;;;;;10.18;72.15;99376.09;6310899;23;20116;-84
2023/04/12 06:07:48;;;;;;;1.85;0.70;;;;;;;9.92;75.35;99372.91;6334977;23;20045;-85
2023/04/12 06:10:19;;;;;;;0.30;0.30;;;;;;;9.86;75.02;99375.81;6310473;23;20084;-85
2023/04/12 06:12:49;;;;;;;0.20;0.20;;;;;;;9.97;73.93;99363.06;6310326;23;20181;-84
2023/04/12 06:15:19;;;;;;;0.30;0.30;;;;;;;9.92;74.88;99367.69;6312674;23;20443;-85
2023/04/12 06:17:50;;;;;;;0.30;0.30;;;;;;;9.84;76.00;99360.16;6310480;23;20009;-83
2023/04/12 06:20:20;;;;;;;0.30;0.30;;;;;;;9.96;74.63;99357.91;6310293;23;20005;-84
2023/04/12 06:22:51;;;;;;;0.20;0.20;;;;;;;9.96;74.63;99348.25;6308705;23;20051;-85
2023/04/12 06:25:21;;;;;;;0.20;0.20;;;;;;;9.97;74.96;99351.75;6345281;23;20005;-85
2023/04/12 06:27:52;;;;;;;0.30;0.30;;;;;;;10.16;72.93;99349.97;6309260;23;20014;-85
2023/04/12 06:30:22;;;;;;;0.30;0.30;;;;;;;10.19;73.10;99348.97;6310361;23;20088;-85
2023/04/12 06:32:53;;;;;;;0.20;0.20;;;;;;;10.18;74.63;99342.03;6310415;23;20020;-85
2023/04/12 06:35:23;;;;;;;0.30;0.30;;;;;;;10.18;73.69;99336.78;6311437;23;20096;-85
2023/04/12 06:37:54;;;;;;;0.30;0.30;;;;;;;10.10;75.43;99328.44;6312937;23;20040;-86
2023/04/12 06:40:24;;;;;;;0.20;0.20;;;;;;;10.19;73.79;99331.47;6314935;23;20012;-87
2023/04/12 06:42:56;;;;;;;0.30;0.30;;;;;;;10.02;76.49;99311.31;6311061;23;20013;-87
2023/04/12 06:45:27;;;;;;;0.30;0.30;;;;;;;10.19;74.26;99312.28;6289633;23;20384;-85
2023/04/12 06:47:57;;;;;;;0.20;0.20;;;;;;;10.22;74.81;99309.47;6315905;23;20025;-86
2023/04/12 06:50:28;;;;;;;0.32;0.32;;;;;;;10.04;76.68;99308.59;6342477;23;20002;-85
2023/04/12 06:52:58;;;;;;;0.20;0.20;;;;;;;10.15;75.46;99292.38;6319303;23;20015;-84
2023/04/12 06:55:29;;;;;;;0.20;0.20;;;;;;;10.30;74.39;99291.63;6316879;23;20033;-86
2023/04/12 06:57:59;;;;;;;0.25;0.25;;;;;;;10.32;75.64;99295.00;6316471;23;20490;-85
2023/04/12 07:00:30;;;;;;;3.63;0.77;;;;;;;10.23;75.33;99290.22;6317087;23;20002;-86
2023/04/12 07:03:00;;;;;;;0.20;0.20;;;;;;;10.14;76.36;99288.03;6314163;23;20017;-86
2023/04/12 07:05:31;;;;;;;0.40;0.40;;;;;;;10.24;75.90;99273.56;6340183;23;20048;-84
2023/04/12 07:08:01;;;;;;;0.30;0.30;;;;;;;10.20;76.98;99274.66;6316335;23;20227;-86
2023/04/12 07:10:31;;;;;;;0.45;0.45;;;;;;;10.29;75.57;99271.56;6317934;23;20063;-85
2023/04/12 07:13:05;;;;;;;0.55;0.55;;;;;;;10.36;76.16;99283.47;6314544;23;20112;-86
2023/04/12 07:15:36;;;;;;;0.60;0.60;;;;;;;10.39;76.44;99272.84;6314414;23;20477;-85
2023/04/12 07:18:06;;;;;;;2.28;1.90;;;;;;;10.25;77.25;99277.91;6315032;23;20008;-85
2023/04/12 07:20:37;;;;;;;1.48;0.90;;;;;;;10.30;77.06;99262.78;6313635;23;20096;-84
2023/04/12 07:23:08;;;;;;;0.35;0.35;;;;;;;10.42;74.71;99257.91;6314354;23;20005;-86
2023/04/12 07:25:38;;;;;;;0.30;0.30;;;;;;;10.62;73.29;99262.97;6314814;23;20308;-85
2023/04/12 07:28:09;;;;;;;0.30;0.30;;;;;;;10.53;74.71;99258.22;6315231;23;20009;-85
2023/04/12 07:30:39;;;;;;;0.30;0.30;;;;;;;10.63;73.85;99240.22;6312761;23;20013;-86
2023/04/12 07:33:10;;;;;;;0.43;0.43;;;;;;;10.60;75.32;99248.25;6313971;23;20328;-86
2023/04/12 07:35:41;;;;;;;0.20;0.20;;;;;;;10.70;73.41;99245.06;6323399;23;20668;-85
2023/04/12 07:38:11;;;;;;;0.40;0.40;;;;;;;10.64;75.34;99245.38;6289854;23;20025;-87
2023/04/12 07:40:42;;;;;;;0.30;0.30;;;;;;;10.70;74.43;99239.81;6323950;23;20001;-86
2023/04/12 07:43:15;;;;;;;0.30;0.30;;;;;;;10.67;75.50;99250.50;6315228;23;20005;-86
2023/04/12 07:45:45;;;;;;;0.45;0.45;;;;;;;10.63;76.43;99246.31;6339408;23;20010;-85
2023/04/12 07:48:16;;;;;;;0.30;0.30;;;;;;;10.70;75.65;99246.84;6324184;23;20044;-87
2023/04/12 07:50:46;;;;;;;0.20;0.20;;;;;;;10.88;73.83;99254.72;6314524;23;20048;-86
2023/04/12 07:53:21;;;;;;;0.20;0.20;;;;;;;10.73;75.24;99249.34;6313186;23;20014;-85
2023/04/12 07:55:51;;;;;;;0.30;0.30;;;;;;;10.86;73.47;99244.31;6311824;23;20017;-85
2023/04/12 07:58:23;;;;;;;0.50;0.50;;;;;;;10.84;73.72;99240.91;6312467;23;20056;-87
2023/04/12 08:00:55;;;;;;;1.00;1.00;;;;;;;10.82;74.89;99238.38;6344655;23;20461;-86
2023/04/12 08:03:26;;;;;;;1.70;0.55;;;;;;;10.91;73.91;99242.28;6311405;23;20064;-87
2023/04/12 08:05:57;;;;;;;0.30;0.30;;;;;;;10.92;74.73;99228.22;6310635;23;20013;-87
2023/04/12 08:08:28;;;;;;;0.30;0.30;;;;;;;10.92;74.88;99232.59;6311732;23;20017;-86
2023/04/12 08:10:59;;;;;;;0.30;0.30;;;;;;;11.01;73.23;99229.50;6310411;23;20100;-84
2023/04/12 08:13:30;;;;;;;0.52;0.52;;;;;;;10.98;73.57;99233.16;6311093;23;20457;-85
2023/04/12 08:16:00;;;;;;;0.60;0.60;;;;;;;11.10;74.02;99225.56;6311760;23;20010;-85
2023/04/12 08:18:31;;;;;;;0.73;0.73;;;;;;;10.98;75.93;99213.94;6312510;23;20017;-83
2023/04/12 08:21:01;;;;;;;0.20;0.20;;;;;;;11.12;74.45;99207.94;6309823;23;20028;-83
2023/04/12 08:23:32;;;;;;;0.43;0.43;;;;;;;11.09;76.19;99219.44;6309098;23;20017;-84
2023/04/12 08:26:02;;;;;;;0.22;0.22;;;;;;;11.17;75.90;99222.50;6342132;23;20043;-84
2023/04/12 08:28:33;;;;;;;0.22;0.22;;;;;;;11.30;73.61;99221.88;6334613;23;20002;-86
2023/04/12 08:31:04;;;;;;;0.30;0.30;;;;;;;11.30;73.94;99225.31;6307780;23;20020;-85
2023/04/12 08:33:34;;;;;;;0.50;0.50;;;;;;;11.27;75.33;99228.13;6309265;23;20017;-85
2023/04/12 08:36:06;;;;;;;0.55;0.55;;;;;;;11.29;75.16;99221.00;6341661;23;20021;-85
2023/04/12 08:38:37;;;;;;;1.10;1.10;;;;;;;11.40;73.92;99222.22;6314900;23;20044;-85
2023/04/12 08:41:08;;;;;;;0.40;0.40;;;;;;;11.41;74.86;99226.53;6313963;23;20013;-85
2023/04/12 08:43:42;;;;;;;0.20;0.20;;;;;;;11.39;76.16;99223.13;6313048;23;20001;-84
2023/04/12 08:46:14;;;;;;;0.40;0.40;;;;;;;11.44;75.66;99224.59;6307252;23;20025;-83
2023/04/12 08:48:49;;;;;;;0.30;0.30;;;;;;;11.52;74.40;99226.81;6311357;23;20019;-85
2023/04/12 08:51:21;;;;;;;0.30;0.30;;;;;;;11.48;76.19;99226.13;6339326;23;20033;-86
2023/04/12 08:53:52;;;;;;;0.30;0.30;;;;;;;11.54;74.67;99230.16;6310175;23;20012;-85
2023/04/12 08:56:23;;;;;;;1.77;0.55;;;;;;;11.58;74.51;99236.97;6307203;23;20017;-85
2023/04/12 08:58:55;;;;;;;0.30;0.30;;;;;;;11.56;74.58;99230.94;6310130;23;20013;-85
2023/04/12 09:01:25;;;;;;;0.30;0.30;;;;;;;11.55;75.13;99228.41;6306626;23;20022;-86
2023/04/12 09:03:56;;;;;;;0.30;0.30;;;;;;;11.56;74.70;99238.81;6308022;23;20012;-84
2023/04/12 09:06:26;;;;;;;0.25;0.25;;;;;;;11.46;77.13;99232.38;6337142;23;20086;-84
2023/04/12 09:08:58;;;;;;;0.43;0.43;;;;;;;11.39;78.33;99226.63;6309068;23;20588;-83
2023/04/12 09:11:29;;;;;;;0.38;0.38;;;;;;;11.41;77.29;99223.91;6337123;23;20013;-84
2023/04/12 09:14:00;;;;;;;0.25;0.25;;;;;;;11.56;76.33;99228.31;6307292;23;20013;-83
2023/04/12 09:16:37;;;;;;;0.20;0.20;;;;;;;11.58;77.51;99215.94;6306802;23;20092;-84
2023/04/12 09:19:08;;;;;;;0.20;0.20;;;;;;;11.48;78.39;99226.13;6315157;23;20010;-83
2023/04/12 09:21:53;;;;;;;0.35;0.35;;;;;;;11.50;77.39;99226.03;6312455;23;20021;-83
2023/04/12 09:24:24;;;;;;;30.20;1.23;;;;;;;11.46;78.73;99214.84;6323394;23;20014;-83
2023/04/12 09:27:02;;;;;;;0.50;0.50;;;;;;;11.56;79.47;99204.66;6311872;23;20019;-83
2023/04/12 09:29:33;;;;;;;0.30;0.30;;;;;;;11.61;79.43;99204.41;6312851;23;20092;-84
2023/04/12 09:32:06;;;;;;;0.30;0.30;;;;;;;11.44;80.95;99202.75;6313557;23;20024;-83
2023/04/12 09:34:37;;;;;;;0.30;0.30;;;;;;;11.53;80.65;99207.47;6310917;23;20009;-83
2023/04/12 09:37:13;;;;;;;0.20;0.20;;;;;;;11.58;80.38;99205.44;6306740;23;20354;-83
2023/04/12 09:39:43;;;;;;;0.25;0.25;;;;;;;11.68;79.91;99204.94;6334451;23;20092;-83
2023/04/12 09:42:14;;;;;;;0.40;0.40;;;;;;;11.66;80.05;99210.25;6305933;23;20113;-83
2023/04/12 09:44:44;;;;;;;0.20;0.20;;;;;;;11.85;77.04;99211.84;6308639;23;20096;-83
2023/04/12 09:47:15;;;;;;;0.30;0.30;;;;;;;11.58;80.14;99201.94;6282945;23;20462;-83
2023/04/12 09:49:45;;;;;;;0.20;0.20;;;;;;;11.64;79.47;99199.84;6318960;23;20512;-83
2023/04/12 09:52:16;;;;;;;0.20;0.20;;;;;;;11.38;80.18;99203.06;6308707;23;20120;-84
2023/04/12 09:54:49;;;;;;;0.30;0.30;;;;;;;11.09;81.28;99205.50;6294045;23;20446;-84
2023/04/12 09:57:23;;;;;;;0.45;0.38;;;;;;;11.27;81.61;99212.38;6316655;23;20017;-84
2023/04/12 09:59:59;;;;;;;0.20;0.20;;;;;;;11.44;80.44;99208.81;6319217;23;20006;-83
2023/04/12 10:02:30;;;;;;;0.35;0.35;;;;;;;11.64;79.18;99197.22;6342876;23;20021;-84
2023/04/12 10:05:01;;;;;;;0.20;0.20;;;;;;;11.60;81.04;99203.59;6319377;23;20472;-84
2023/04/12 10:07:35;;;;;;;0.30;0.30;;;;;;;11.69;80.35;99211.88;6307241;23;20026;-84
2023/04/12 10:10:07;;;;;;;0.20;0.20;;;;;;;11.67;80.69;99196.19;6308648;23;20005;-84
2023/04/12 10:12:42;;;;;;;0.40;0.40;;;;;;;11.70;80.36;99197.78;6306433;23;20304;-83
2023/04/12 10:15:16;;;;;;;0.30;0.30;;;;;;;11.81;78.46;99206.78;6313237;23;20030;-83
2023/04/12 10:17:53;;;;;;;0.30;0.30;;;;;;;11.97;77.04;99200.69;6320419;23;20143;-83
2023/04/12 10:20:24;;;;;;;0.30;0.30;;;;;;;11.77;77.23;99207.06;6323951;23;20092;-83
2023/04/12 10:22:55;;;;;;;0.20;0.20;;;;;;;11.87;76.02;99205.56;6308283;23;20285;-83
2023/04/12 10:25:29;;;;;;;0.20;0.20;;;;;;;11.97;73.99;99200.69;6309455;23;20315;-83
2023/04/12 10:28:17;;;;;;;0.20;0.20;;;;;;;11.98;75.11;99206.78;6312890;23;20033;-83
2023/04/12 10:30:49;;;;;;;0.20;0.20;;;;;;;11.99;75.94;99203.22;6313326;23;20018;-84
2023/04/12 10:33:29;;;;;;;0.60;0.60;;;;;;;11.96;74.32;99214.72;6314356;23;20014;-84
2023/04/12 10:36:09;;;;;;;0.45;0.45;;;;;;;11.81;74.06;99213.81;6313389;23;20012;-84
2023/04/12 10:38:47;;;;;;;0.68;0.68;;;;;;;11.92;73.87;99223.72;6323863;23;20006;-84
2023/04/12 10:41:21;;;;;;;0.35;0.35;;;;;;;12.10;73.41;99242.91;6314275;23;20053;-84
2023/04/12 10:44:11;;;;;;;0.38;0.38;;;;;;;12.16;73.27;99232.03;6338198;23;20462;-84
2023/04/12 10:46:45;;;;;;;0.40;0.40;;;;;;;11.99;73.73;99246.13;6337314;23;20021;-84
2023/04/12 10:49:16;;;;;;;1.08;1.00;;;;;;;11.93;73.86;99231.53;6312778;23;20013;-85
2023/04/12 10:52:09;;;;;;;0.45;0.45;;;;;;;12.08;72.91;99232.44;6314379;23;20318;-85
2023/04/12 10:54:40;;;;;;;0.50;0.50;;;;;;;12.07;73.00;99229.91;6327018;23;20328;-84
2023/04/12 10:57:41;;;;;;;0.90;0.82;;;;;;;12.17;73.02;99227.59;6341961;23;20025;-85
2023/04/12 11:00:13;;;;;;;0.40;0.40;;;;;;;12.27;72.55;99228.78;6325170;23;20009;-84
2023/04/12 11:03:02;;;;;;;0.30;0.30;;;;;;;12.27;72.34;99229.59;6338561;23;20068;-84
2023/04/12 11:06:00;;;;;;;0.50;0.50;;;;;;;12.31;72.01;99227.66;6314923;23;20009;-84
2023/04/12 11:08:38;;;;;;;0.85;0.85;;;;;;;12.24;72.29;99235.06;6315133;23;20014;-84
2023/04/12 11:11:21;;;;;;;0.30;0.30;;;;;;;12.21;70.52;99232.59;6313017;23;20020;-85
2023/04/12 11:13:55;;;;;;;0.30;0.30;;;;;;;12.37;70.08;99232.56;6325335;23;20338;-84
2023/04/12 11:16:26;;;;;;;0.32;0.32;;;;;;;12.44;70.19;99230.41;6314362;23;20489;-84
2023/04/12 11:18:57;;;;;;;0.30;0.30;;;;;;;12.52;69.64;99228.16;6315402;23;20085;-84
2023/04/12 11:21:28;;;;;;;0.40;0.40;;;;;;;12.58;70.00;99230.47;6316852;23;20017;-84
2023/04/12 11:23:59;;;;;;;0.88;0.88;;;;;;;12.50;69.40;99235.31;6322823;23;20016;-84
2023/04/12 11:26:34;;;;;;;0.85;0.70;;;;;;;12.56;69.95;99228.84;6311855;23;20031;-84
2023/04/12 11:29:11;;;;;;;0.20;0.20;;;;;;;12.76;69.51;99230.31;6313425;23;20021;-84
2023/04/12 11:31:41;;;;;;;0.35;0.35;;;;;;;12.84;69.90;99227.19;6310622;23;20024;-85
2023/04/12 11:34:12;;;;;;;2.00;0.65;;;;;;;12.89;69.39;99220.72;6286546;23;20009;-84
2023/04/12 11:36:47;;;;;;;0.30;0.30;;;;;;;12.80;67.81;99226.53;6310289;23;20013;-84
2023/04/12 11:39:20;;;;;;;0.75;0.75;;;;;;;12.79;65.45;99224.00;6290250;23;20013;-84
2023/04/12 11:41:51;;;;;;;;;;;;;;;12.84;65.68;99235.94;6314359;23;20017;-83
2023/04/12 11:44:22;;;;;;;0.20;0.20;;;;;;;12.90;64.48;99227.66;6312288;23;20015;-85
2023/04/12 11:46:53;;;;;;;1.45;1.30;;;;;;;12.97;64.65;99228.16;6313260;23;20462;-84
2023/04/12 11:49:24;;;;;;;0.73;0.73;;;;;;;13.07;63.38;99228.44;6313104;23;20006;-84
2023/04/12 11:52:03;;;;;;;0.28;0.28;;;;;;;13.20;62.58;99229.34;6313170;23;20017;-83
2023/04/12 11:54:34;;;;;;;0.20;0.20;;;;;;;12.93;61.06;99228.44;6339269;23;20010;-84
2023/04/12 11:57:04;;;;;;;0.30;0.30;;;;;;;13.16;63.35;99227.88;6313511;23;20017;-83
2023/04/12 11:59:37;;;;;;;0.90;0.60;;;;;;;13.12;60.93;99228.97;6314126;23;20345;-83